sensor_id;sensor_type;location;lat;lon;timestamp;temperature;humidity
19803;DHT22;66074;50.764;6.090;2023-11-19T00:00:33;12.50;99.90
19803;DHT22;66074;50.764;6.090;2023-11-19T00:02:58;12.50;99.90
19803;DHT22;66074;50.764;6.090;2023-11-19T00:05:24;12.50;99.90
19803;DHT22;66074;50.764;6.090;2023-11-19T00:07:50;12.50;99.90
19803;DHT22;66074;50.764;6.090;2023-11-19T00:10:16;12.50;99.90
19803;DHT22;66074;50.764;6.090;2023-11-19T00:12:47;12.50;99.90
19803;DHT22;66074;50.764;6.090;2023-11-19T00:15:13;12.50;99.90
19803;DHT22;66074;50.764;6.090;2023-11-19T00:17:40;12.50;99.90
19803;DHT22;66074;50.764;6.090;2023-11-19T00:20:10;12.50;99.90
19803;DHT22;66074;50.764;6.090;2023-11-19T00:22:36;12.50;99.90
19803;DHT22;66074;50.764;6.090;2023-11-19T00:25:02;12.50;99.90
19803;DHT22;66074;50.764;6.090;2023-11-19T00:27:29;12.50;99.90
19803;DHT22;66074;50.764;6.090;2023-11-19T00:29:54;12.50;99.90
19803;DHT22;66074;50.764;6.090;2023-11-19T00:32:20;12.60;99.90
19803;DHT22;66074;50.764;6.090;2023-11-19T00:34:46;12.60;99.90
19803;DHT22;66074;50.764;6.090;2023-11-19T00:37:13;12.60;99.90
19803;DHT22;66074;50.764;6.090;2023-11-19T00:39:39;12.60;99.90
19803;DHT22;66074;50.764;6.090;2023-11-19T00:42:05;12.60;99.90
19803;DHT22;66074;50.764;6.090;2023-11-19T00:44:31;12.60;99.90
19803;DHT22;66074;50.764;6.090;2023-11-19T00:46:56;12.70;99.90
19803;DHT22;66074;50.764;6.090;2023-11-19T00:49:22;12.70;99.90
19803;DHT22;66074;50.764;6.090;2023-11-19T00:51:49;12.70;99.90
19803;DHT22;66074;50.764;6.090;2023-11-19T00:54:15;12.70;99.90
19803;DHT22;66074;50.764;6.090;2023-11-19T00:56:40;12.70;99.90
19803;DHT22;66074;50.764;6.090;2023-11-19T00:59:06;12.70;99.90
19803;DHT22;66074;50.764;6.090;2023-11-19T01:01:33;12.80;99.90
19803;DHT22;66074;50.764;6.090;2023-11-19T01:03:59;12.90;99.90
19803;DHT22;66074;50.764;6.090;2023-11-19T01:06:31;12.80;99.90
19803;DHT22;66074;50.764;6.090;2023-11-19T01:08:57;12.80;99.90
19803;DHT22;66074;50.764;6.090;2023-11-19T01:11:23;12.80;99.90
19803;DHT22;66074;50.764;6.090;2023-11-19T01:13:49;12.90;99.90
19803;DHT22;66074;50.764;6.090;2023-11-19T01:16:16;12.90;99.90
19803;DHT22;66074;50.764;6.090;2023-11-19T01:18:41;12.90;99.90
19803;DHT22;66074;50.764;6.090;2023-11-19T01:21:07;12.90;99.90
19803;DHT22;66074;50.764;6.090;2023-11-19T01:23:34;12.90;99.90
19803;DHT22;66074;50.764;6.090;2023-11-19T01:26:00;12.90;99.90
19803;DHT22;66074;50.764;6.090;2023-11-19T01:28:25;12.90;99.90
19803;DHT22;66074;50.764;6.090;2023-11-19T01:30:51;12.80;99.90
19803;DHT22;66074;50.764;6.090;2023-11-19T01:33:17;12.90;99.90
19803;DHT22;66074;50.764;6.090;2023-11-19T01:35:43;12.90;99.90
19803;DHT22;66074;50.764;6.090;2023-11-19T01:38:08;13.00;99.90
19803;DHT22;66074;50.764;6.090;2023-11-19T01:40:35;12.90;99.90
19803;DHT22;66074;50.764;6.090;2023-11-19T01:43:02;12.90;99.90
19803;DHT22;66074;50.764;6.090;2023-11-19T01:45:29;13.00;99.90
19803;DHT22;66074;50.764;6.090;2023-11-19T01:48:00;13.00;99.90
19803;DHT22;66074;50.764;6.090;2023-11-19T01:50:28;12.90;99.90
19803;DHT22;66074;50.764;6.090;2023-11-19T01:52:54;13.00;99.90
19803;DHT22;66074;50.764;6.090;2023-11-19T01:55:21;12.90;99.90
19803;DHT22;66074;50.764;6.090;2023-11-19T01:57:48;12.90;99.90
19803;DHT22;66074;50.764;6.090;2023-11-19T02:00:15;12.90;99.90
19803;DHT22;66074;50.764;6.090;2023-11-19T02:02:41;12.90;99.90
19803;DHT22;66074;50.764;6.090;2023-11-19T02:05:08;13.00;99.90
19803;DHT22;66074;50.764;6.090;2023-11-19T02:07:33;13.00;99.90
19803;DHT22;66074;50.764;6.090;2023-11-19T02:09:59;13.00;99.90
19803;DHT22;66074;50.764;6.090;2023-11-19T02:12:27;13.00;99.90
19803;DHT22;66074;50.764;6.090;2023-11-19T02:14:59;13.00;99.90
19803;DHT22;66074;50.764;6.090;2023-11-19T02:17:29;13.00;99.90
19803;DHT22;66074;50.764;6.090;2023-11-19T02:19:57;13.00;99.90
19803;DHT22;66074;50.764;6.090;2023-11-19T02:22:24;12.90;99.90
19803;DHT22;66074;50.764;6.090;2023-11-19T02:24:51;12.90;99.90
19803;DHT22;66074;50.764;6.090;2023-11-19T02:29:56;13.00;99.90
19803;DHT22;66074;50.764;6.090;2023-11-19T02:32:23;13.00;99.90
19803;DHT22;66074;50.764;6.090;2023-11-19T02:34:49;13.00;99.90
19803;DHT22;66074;50.764;6.090;2023-11-19T02:37:14;13.00;99.90
19803;DHT22;66074;50.764;6.090;2023-11-19T02:39:40;13.00;99.90
19803;DHT22;66074;50.764;6.090;2023-11-19T02:42:07;12.90;99.90
19803;DHT22;66074;50.764;6.090;2023-11-19T02:44:33;12.90;99.90
19803;DHT22;66074;50.764;6.090;2023-11-19T02:46:59;12.90;99.90
19803;DHT22;66074;50.764;6.090;2023-11-19T02:49:25;12.90;99.90
19803;DHT22;66074;50.764;6.090;2023-11-19T02:51:51;12.90;99.90
19803;DHT22;66074;50.764;6.090;2023-11-19T02:54:17;12.90;99.90
19803;DHT22;66074;50.764;6.090;2023-11-19T02:56:43;12.80;99.90
19803;DHT22;66074;50.764;6.090;2023-11-19T02:59:08;13.00;99.90
19803;DHT22;66074;50.764;6.090;2023-11-19T03:01:43;12.90;99.90
19803;DHT22;66074;50.764;6.090;2023-11-19T03:04:15;13.10;99.90
19803;DHT22;66074;50.764;6.090;2023-11-19T03:06:42;13.00;99.90
19803;DHT22;66074;50.764;6.090;2023-11-19T03:09:07;13.00;99.90
19803;DHT22;66074;50.764;6.090;2023-11-19T03:11:36;13.00;99.90
19803;DHT22;66074;50.764;6.090;2023-11-19T03:14:01;13.00;99.90
19803;DHT22;66074;50.764;6.090;2023-11-19T03:16:28;13.00;99.90
19803;DHT22;66074;50.764;6.090;2023-11-19T03:18:54;13.00;99.90
19803;DHT22;66074;50.764;6.090;2023-11-19T03:21:29;13.10;99.90
19803;DHT22;66074;50.764;6.090;2023-11-19T03:23:55;13.00;99.90
19803;DHT22;66074;50.764;6.090;2023-11-19T03:26:21;13.10;99.90
19803;DHT22;66074;50.764;6.090;2023-11-19T03:28:47;13.10;99.90
19803;DHT22;66074;50.764;6.090;2023-11-19T03:31:13;13.10;99.90
19803;DHT22;66074;50.764;6.090;2023-11-19T03:33:38;13.10;99.90
19803;DHT22;66074;50.764;6.090;2023-11-19T03:36:04;13.10;99.90
19803;DHT22;66074;50.764;6.090;2023-11-19T03:38:30;13.20;99.90
19803;DHT22;66074;50.764;6.090;2023-11-19T03:40:56;13.10;99.90
19803;DHT22;66074;50.764;6.090;2023-11-19T03:43:21;13.10;99.90
19803;DHT22;66074;50.764;6.090;2023-11-19T03:45:47;13.10;99.90
19803;DHT22;66074;50.764;6.090;2023-11-19T03:48:13;13.10;99.90
19803;DHT22;66074;50.764;6.090;2023-11-19T03:50:41;13.10;99.90
19803;DHT22;66074;50.764;6.090;2023-11-19T03:53:07;13.10;99.90
19803;DHT22;66074;50.764;6.090;2023-11-19T03:55:33;13.10;99.90
19803;DHT22;66074;50.764;6.090;2023-11-19T03:57:58;13.10;99.90
19803;DHT22;66074;50.764;6.090;2023-11-19T04:00:24;13.20;99.90
19803;DHT22;66074;50.764;6.090;2023-11-19T04:02:50;13.10;99.90
19803;DHT22;66074;50.764;6.090;2023-11-19T04:05:15;13.10;99.90
19803;DHT22;66074;50.764;6.090;2023-11-19T04:07:41;13.20;99.90
19803;DHT22;66074;50.764;6.090;2023-11-19T04:10:07;13.10;99.90
19803;DHT22;66074;50.764;6.090;2023-11-19T04:12:33;13.10;99.90
19803;DHT22;66074;50.764;6.090;2023-11-19T04:14:58;13.10;99.90
19803;DHT22;66074;50.764;6.090;2023-11-19T04:17:24;13.10;99.90
19803;DHT22;66074;50.764;6.090;2023-11-19T04:19:51;13.10;99.90
19803;DHT22;66074;50.764;6.090;2023-11-19T04:22:17;13.00;99.90
19803;DHT22;66074;50.764;6.090;2023-11-19T04:24:42;13.10;99.90
19803;DHT22;66074;50.764;6.090;2023-11-19T04:27:10;13.00;99.90
19803;DHT22;66074;50.764;6.090;2023-11-19T04:29:36;12.90;99.90
19803;DHT22;66074;50.764;6.090;2023-11-19T04:32:02;13.00;99.90
19803;DHT22;66074;50.764;6.090;2023-11-19T04:34:27;13.00;99.90
19803;DHT22;66074;50.764;6.090;2023-11-19T04:36:53;13.10;99.90
19803;DHT22;66074;50.764;6.090;2023-11-19T04:39:19;13.00;99.90
19803;DHT22;66074;50.764;6.090;2023-11-19T04:41:51;12.90;99.90
19803;DHT22;66074;50.764;6.090;2023-11-19T04:44:18;12.90;99.90
19803;DHT22;66074;50.764;6.090;2023-11-19T04:46:44;12.80;99.90
19803;DHT22;66074;50.764;6.090;2023-11-19T04:49:11;12.80;99.90
19803;DHT22;66074;50.764;6.090;2023-11-19T04:51:41;12.80;99.90
19803;DHT22;66074;50.764;6.090;2023-11-19T04:54:10;12.80;99.90
19803;DHT22;66074;50.764;6.090;2023-11-19T04:56:36;12.90;99.90
19803;DHT22;66074;50.764;6.090;2023-11-19T04:59:05;12.90;99.90
19803;DHT22;66074;50.764;6.090;2023-11-19T05:01:32;12.90;99.90
19803;DHT22;66074;50.764;6.090;2023-11-19T05:03:58;12.80;99.90
19803;DHT22;66074;50.764;6.090;2023-11-19T05:06:26;12.80;99.90
19803;DHT22;66074;50.764;6.090;2023-11-19T05:08:53;12.80;99.90
19803;DHT22;66074;50.764;6.090;2023-11-19T05:11:19;12.80;99.90
19803;DHT22;66074;50.764;6.090;2023-11-19T05:13:45;12.80;99.90
19803;DHT22;66074;50.764;6.090;2023-11-19T05:16:11;12.80;99.90
19803;DHT22;66074;50.764;6.090;2023-11-19T05:18:40;12.80;99.90
19803;DHT22;66074;50.764;6.090;2023-11-19T05:21:06;12.80;99.90
19803;DHT22;66074;50.764;6.090;2023-11-19T05:23:32;12.80;99.90
19803;DHT22;66074;50.764;6.090;2023-11-19T05:26:00;12.80;99.90
19803;DHT22;66074;50.764;6.090;2023-11-19T05:28:26;12.90;99.90
19803;DHT22;66074;50.764;6.090;2023-11-19T05:30:51;12.90;99.90
19803;DHT22;66074;50.764;6.090;2023-11-19T05:33:17;12.90;99.90
19803;DHT22;66074;50.764;6.090;2023-11-19T05:35:42;12.90;99.90
19803;DHT22;66074;50.764;6.090;2023-11-19T05:38:08;12.90;99.90
19803;DHT22;66074;50.764;6.090;2023-11-19T05:40:35;12.90;99.90
19803;DHT22;66074;50.764;6.090;2023-11-19T05:43:00;13.00;99.90
19803;DHT22;66074;50.764;6.090;2023-11-19T05:45:26;13.10;99.90
19803;DHT22;66074;50.764;6.090;2023-11-19T05:47:52;13.10;99.90
19803;DHT22;66074;50.764;6.090;2023-11-19T05:50:18;13.10;99.90
19803;DHT22;66074;50.764;6.090;2023-11-19T05:52:43;13.10;99.90
19803;DHT22;66074;50.764;6.090;2023-11-19T05:55:09;13.20;99.90
19803;DHT22;66074;50.764;6.090;2023-11-19T05:57:38;13.10;99.90
19803;DHT22;66074;50.764;6.090;2023-11-19T06:00:05;13.10;99.90
19803;DHT22;66074;50.764;6.090;2023-11-19T06:02:33;13.00;99.90
19803;DHT22;66074;50.764;6.090;2023-11-19T06:04:58;13.00;99.90
19803;DHT22;66074;50.764;6.090;2023-11-19T06:07:24;13.00;99.90
19803;DHT22;66074;50.764;6.090;2023-11-19T06:09:50;12.90;99.90
19803;DHT22;66074;50.764;6.090;2023-11-19T06:12:16;12.90;99.90
19803;DHT22;66074;50.764;6.090;2023-11-19T06:14:41;12.90;99.90
19803;DHT22;66074;50.764;6.090;2023-11-19T06:17:07;12.90;99.90
19803;DHT22;66074;50.764;6.090;2023-11-19T06:19:34;12.80;99.90
19803;DHT22;66074;50.764;6.090;2023-11-19T06:21:59;12.80;99.90
19803;DHT22;66074;50.764;6.090;2023-11-19T06:24:25;12.80;99.90
19803;DHT22;66074;50.764;6.090;2023-11-19T06:26:51;12.80;99.90
19803;DHT22;66074;50.764;6.090;2023-11-19T06:29:16;12.80;99.90
19803;DHT22;66074;50.764;6.090;2023-11-19T06:31:45;12.80;99.90
19803;DHT22;66074;50.764;6.090;2023-11-19T06:34:12;12.90;99.90
19803;DHT22;66074;50.764;6.090;2023-11-19T06:36:37;12.90;99.90
19803;DHT22;66074;50.764;6.090;2023-11-19T06:39:03;13.00;99.90
19803;DHT22;66074;50.764;6.090;2023-11-19T06:41:29;12.90;99.90
19803;DHT22;66074;50.764;6.090;2023-11-19T06:43:55;12.90;99.90
19803;DHT22;66074;50.764;6.090;2023-11-19T06:46:20;12.90;99.90
19803;DHT22;66074;50.764;6.090;2023-11-19T06:48:46;12.90;99.90
19803;DHT22;66074;50.764;6.090;2023-11-19T06:51:13;12.90;99.90
19803;DHT22;66074;50.764;6.090;2023-11-19T06:53:39;12.90;99.90
19803;DHT22;66074;50.764;6.090;2023-11-19T06:56:41;13.00;99.90
19803;DHT22;66074;50.764;6.090;2023-11-19T06:59:07;12.90;99.90
19803;DHT22;66074;50.764;6.090;2023-11-19T07:01:36;13.00;99.90
19803;DHT22;66074;50.764;6.090;2023-11-19T07:04:03;12.90;99.90
19803;DHT22;66074;50.764;6.090;2023-11-19T07:06:35;13.00;99.90
19803;DHT22;66074;50.764;6.090;2023-11-19T07:09:01;13.00;99.90
19803;DHT22;66074;50.764;6.090;2023-11-19T07:11:35;12.90;99.90
19803;DHT22;66074;50.764;6.090;2023-11-19T07:14:02;12.80;99.90
19803;DHT22;66074;50.764;6.090;2023-11-19T07:16:28;12.80;99.90
19803;DHT22;66074;50.764;6.090;2023-11-19T07:18:53;12.90;99.90
19803;DHT22;66074;50.764;6.090;2023-11-19T07:21:19;12.80;99.90
19803;DHT22;66074;50.764;6.090;2023-11-19T07:23:45;12.80;99.90
19803;DHT22;66074;50.764;6.090;2023-11-19T07:26:12;12.70;99.90
19803;DHT22;66074;50.764;6.090;2023-11-19T07:28:38;12.70;99.90
19803;DHT22;66074;50.764;6.090;2023-11-19T07:31:05;12.70;99.90
19803;DHT22;66074;50.764;6.090;2023-11-19T07:33:33;12.70;99.90
19803;DHT22;66074;50.764;6.090;2023-11-19T07:35:59;12.60;99.90
19803;DHT22;66074;50.764;6.090;2023-11-19T07:38:25;12.60;99.90
19803;DHT22;66074;50.764;6.090;2023-11-19T07:40:50;12.50;99.90
19803;DHT22;66074;50.764;6.090;2023-11-19T07:43:16;12.50;99.90
19803;DHT22;66074;50.764;6.090;2023-11-19T07:45:42;12.50;99.90
19803;DHT22;66074;50.764;6.090;2023-11-19T07:48:10;12.50;99.90
19803;DHT22;66074;50.764;6.090;2023-11-19T07:50:38;12.50;99.90
19803;DHT22;66074;50.764;6.090;2023-11-19T07:53:06;12.40;99.90
19803;DHT22;66074;50.764;6.090;2023-11-19T07:55:33;12.40;99.90
19803;DHT22;66074;50.764;6.090;2023-11-19T07:57:58;12.40;99.90
19803;DHT22;66074;50.764;6.090;2023-11-19T08:00:24;12.40;99.90
19803;DHT22;66074;50.764;6.090;2023-11-19T08:02:49;12.30;99.90
19803;DHT22;66074;50.764;6.090;2023-11-19T08:05:15;12.30;99.90
19803;DHT22;66074;50.764;6.090;2023-11-19T08:07:41;12.30;99.90
19803;DHT22;66074;50.764;6.090;2023-11-19T08:10:07;12.30;99.90
19803;DHT22;66074;50.764;6.090;2023-11-19T08:12:36;12.30;99.90
19803;DHT22;66074;50.764;6.090;2023-11-19T08:15:03;12.30;99.90
19803;DHT22;66074;50.764;6.090;2023-11-19T08:17:30;12.30;99.90
19803;DHT22;66074;50.764;6.090;2023-11-19T08:19:56;12.30;99.90
19803;DHT22;66074;50.764;6.090;2023-11-19T08:22:24;12.30;99.90
19803;DHT22;66074;50.764;6.090;2023-11-19T08:24:50;12.30;99.90
19803;DHT22;66074;50.764;6.090;2023-11-19T08:27:16;12.30;99.90
19803;DHT22;66074;50.764;6.090;2023-11-19T08:29:41;12.30;99.90
19803;DHT22;66074;50.764;6.090;2023-11-19T08:32:07;12.30;99.90
19803;DHT22;66074;50.764;6.090;2023-11-19T08:34:33;12.30;99.90
19803;DHT22;66074;50.764;6.090;2023-11-19T08:36:59;12.30;99.90
19803;DHT22;66074;50.764;6.090;2023-11-19T08:39:27;12.30;99.90
19803;DHT22;66074;50.764;6.090;2023-11-19T08:41:52;12.30;99.90
19803;DHT22;66074;50.764;6.090;2023-11-19T08:44:18;12.30;99.90
19803;DHT22;66074;50.764;6.090;2023-11-19T08:46:51;12.30;99.90
19803;DHT22;66074;50.764;6.090;2023-11-19T08:49:17;12.30;99.90
19803;DHT22;66074;50.764;6.090;2023-11-19T08:51:43;12.30;99.90
19803;DHT22;66074;50.764;6.090;2023-11-19T08:54:08;12.30;99.90
19803;DHT22;66074;50.764;6.090;2023-11-19T08:56:34;12.30;99.90
19803;DHT22;66074;50.764;6.090;2023-11-19T08:59:01;12.40;99.90
19803;DHT22;66074;50.764;6.090;2023-11-19T09:01:26;12.40;99.90
19803;DHT22;66074;50.764;6.090;2023-11-19T09:03:52;12.50;99.90
19803;DHT22;66074;50.764;6.090;2023-11-19T09:06:18;12.60;99.90
19803;DHT22;66074;50.764;6.090;2023-11-19T09:08:43;12.60;99.90
19803;DHT22;66074;50.764;6.090;2023-11-19T09:11:09;12.60;99.90
19803;DHT22;66074;50.764;6.090;2023-11-19T09:13:35;12.60;99.90
19803;DHT22;66074;50.764;6.090;2023-11-19T09:16:01;12.70;99.90
19803;DHT22;66074;50.764;6.090;2023-11-19T09:18:30;12.70;99.90
19803;DHT22;66074;50.764;6.090;2023-11-19T09:20:57;12.70;99.90
19803;DHT22;66074;50.764;6.090;2023-11-19T09:23:23;12.70;99.90
19803;DHT22;66074;50.764;6.090;2023-11-19T09:25:50;12.70;99.90
19803;DHT22;66074;50.764;6.090;2023-11-19T09:28:16;12.70;99.90
19803;DHT22;66074;50.764;6.090;2023-11-19T09:30:42;12.60;99.90
19803;DHT22;66074;50.764;6.090;2023-11-19T09:33:08;12.60;99.90
19803;DHT22;66074;50.764;6.090;2023-11-19T09:35:33;12.60;99.90
19803;DHT22;66074;50.764;6.090;2023-11-19T09:37:59;12.70;99.90
19803;DHT22;66074;50.764;6.090;2023-11-19T09:40:24;12.70;99.90
19803;DHT22;66074;50.764;6.090;2023-11-19T09:42:51;12.70;99.90
19803;DHT22;66074;50.764;6.090;2023-11-19T09:45:17;12.70;99.90
19803;DHT22;66074;50.764;6.090;2023-11-19T09:47:46;12.70;99.90
19803;DHT22;66074;50.764;6.090;2023-11-19T09:50:16;12.80;99.90
19803;DHT22;66074;50.764;6.090;2023-11-19T09:52:44;12.80;99.90
19803;DHT22;66074;50.764;6.090;2023-11-19T09:55:10;12.80;99.90
19803;DHT22;66074;50.764;6.090;2023-11-19T09:57:38;12.80;99.90
19803;DHT22;66074;50.764;6.090;2023-11-19T10:00:04;12.80;99.90
19803;DHT22;66074;50.764;6.090;2023-11-19T10:02:34;12.90;99.90
19803;DHT22;66074;50.764;6.090;2023-11-19T10:05:07;13.00;99.90
19803;DHT22;66074;50.764;6.090;2023-11-19T10:07:33;13.00;99.90
19803;DHT22;66074;50.764;6.090;2023-11-19T10:10:00;13.00;99.90
19803;DHT22;66074;50.764;6.090;2023-11-19T10:12:27;13.00;99.90
19803;DHT22;66074;50.764;6.090;2023-11-19T10:14:55;13.00;99.90
19803;DHT22;66074;50.764;6.090;2023-11-19T10:17:21;13.20;99.90
19803;DHT22;66074;50.764;6.090;2023-11-19T10:19:47;13.20;99.90
19803;DHT22;66074;50.764;6.090;2023-11-19T10:22:13;13.20;99.90
19803;DHT22;66074;50.764;6.090;2023-11-19T10:24:41;13.20;99.90
19803;DHT22;66074;50.764;6.090;2023-11-19T10:27:08;13.20;99.90
19803;DHT22;66074;50.764;6.090;2023-11-19T10:29:36;13.30;99.90
19803;DHT22;66074;50.764;6.090;2023-11-19T10:32:03;13.30;99.90
19803;DHT22;66074;50.764;6.090;2023-11-19T10:34:29;13.30;99.90
19803;DHT22;66074;50.764;6.090;2023-11-19T10:36:55;13.40;99.90
19803;DHT22;66074;50.764;6.090;2023-11-19T10:39:21;13.50;99.90
19803;DHT22;66074;50.764;6.090;2023-11-19T10:41:47;13.40;99.90
19803;DHT22;66074;50.764;6.090;2023-11-19T10:44:33;13.50;99.90
19803;DHT22;66074;50.764;6.090;2023-11-19T10:47:01;13.50;99.90
19803;DHT22;66074;50.764;6.090;2023-11-19T10:49:27;13.50;99.90
19803;DHT22;66074;50.764;6.090;2023-11-19T10:51:53;13.50;99.90
19803;DHT22;66074;50.764;6.090;2023-11-19T10:54:22;13.40;99.90
19803;DHT22;66074;50.764;6.090;2023-11-19T10:56:55;13.50;99.90
19803;DHT22;66074;50.764;6.090;2023-11-19T10:59:21;13.50;99.90
19803;DHT22;66074;50.764;6.090;2023-11-19T11:01:48;13.30;99.90
19803;DHT22;66074;50.764;6.090;2023-11-19T11:04:22;13.30;99.90
19803;DHT22;66074;50.764;6.090;2023-11-19T11:06:48;13.40;99.90
19803;DHT22;66074;50.764;6.090;2023-11-19T11:09:14;13.60;99.90
19803;DHT22;66074;50.764;6.090;2023-11-19T11:11:40;13.50;99.90
19803;DHT22;66074;50.764;6.090;2023-11-19T11:14:12;13.50;99.90
19803;DHT22;66074;50.764;6.090;2023-11-19T11:16:42;13.50;99.90
19803;DHT22;66074;50.764;6.090;2023-11-19T11:19:10;13.40;99.90
19803;DHT22;66074;50.764;6.090;2023-11-19T11:21:37;13.30;99.90
19803;DHT22;66074;50.764;6.090;2023-11-19T11:32:43;13.00;99.90
19803;DHT22;66074;50.764;6.090;2023-11-19T11:38:02;13.00;99.90
19803;DHT22;66074;50.764;6.090;2023-11-19T11:40:28;12.90;99.90
19803;DHT22;66074;50.764;6.090;2023-11-19T11:42:54;13.00;99.90
19803;DHT22;66074;50.764;6.090;2023-11-19T11:45:36;13.00;99.90
19803;DHT22;66074;50.764;6.090;2023-11-19T11:48:17;13.20;99.90
19803;DHT22;66074;50.764;6.090;2023-11-19T11:50:54;13.10;99.90
19803;DHT22;66074;50.764;6.090;2023-11-19T11:53:22;13.00;99.90
19803;DHT22;66074;50.764;6.090;2023-11-19T11:58:31;13.10;99.90
19803;DHT22;66074;50.764;6.090;2023-11-19T12:00:58;13.20;99.90
19803;DHT22;66074;50.764;6.090;2023-11-19T12:03:27;13.20;99.90
19803;DHT22;66074;50.764;6.090;2023-11-19T12:05:53;13.30;99.90
19803;DHT22;66074;50.764;6.090;2023-11-19T12:08:20;13.30;99.90
19803;DHT22;66074;50.764;6.090;2023-11-19T12:10:51;13.40;99.90
19803;DHT22;66074;50.764;6.090;2023-11-19T12:13:18;13.40;99.90
19803;DHT22;66074;50.764;6.090;2023-11-19T12:18:27;13.60;99.90
19803;DHT22;66074;50.764;6.090;2023-11-19T12:20:54;13.60;99.90
19803;DHT22;66074;50.764;6.090;2023-11-19T12:23:20;13.60;99.90
19803;DHT22;66074;50.764;6.090;2023-11-19T12:25:47;13.60;99.90
19803;DHT22;66074;50.764;6.090;2023-11-19T12:28:14;13.60;99.90
19803;DHT22;66074;50.764;6.090;2023-11-19T12:30:40;13.50;99.90
19803;DHT22;66074;50.764;6.090;2023-11-19T12:33:09;13.40;99.90
19803;DHT22;66074;50.764;6.090;2023-11-19T12:35:42;13.40;99.90
19803;DHT22;66074;50.764;6.090;2023-11-19T12:38:24;13.40;99.90
19803;DHT22;66074;50.764;6.090;2023-11-19T12:41:04;13.40;99.90
19803;DHT22;66074;50.764;6.090;2023-11-19T12:43:31;13.40;99.90
19803;DHT22;66074;50.764;6.090;2023-11-19T12:45:57;13.50;99.90
19803;DHT22;66074;50.764;6.090;2023-11-19T12:48:23;13.50;99.90
19803;DHT22;66074;50.764;6.090;2023-11-19T12:53:20;13.60;99.90
19803;DHT22;66074;50.764;6.090;2023-11-19T12:55:46;13.60;99.90
19803;DHT22;66074;50.764;6.090;2023-11-19T12:58:34;13.60;99.90
19803;DHT22;66074;50.764;6.090;2023-11-19T13:01:03;13.60;99.90
19803;DHT22;66074;50.764;6.090;2023-11-19T13:03:36;13.60;99.90
19803;DHT22;66074;50.764;6.090;2023-11-19T13:06:11;13.70;99.90
19803;DHT22;66074;50.764;6.090;2023-11-19T13:08:44;13.80;99.90
19803;DHT22;66074;50.764;6.090;2023-11-19T13:11:34;13.80;99.90
19803;DHT22;66074;50.764;6.090;2023-11-19T13:14:02;13.80;99.90
19803;DHT22;66074;50.764;6.090;2023-11-19T13:16:30;13.80;99.90
19803;DHT22;66074;50.764;6.090;2023-11-19T13:18:57;13.80;99.90
19803;DHT22;66074;50.764;6.090;2023-11-19T13:21:24;13.90;99.90
19803;DHT22;66074;50.764;6.090;2023-11-19T13:23:50;13.90;99.90
19803;DHT22;66074;50.764;6.090;2023-11-19T13:26:17;14.00;99.90
19803;DHT22;66074;50.764;6.090;2023-11-19T13:28:43;14.20;99.90
19803;DHT22;66074;50.764;6.090;2023-11-19T13:31:09;14.70;99.90
19803;DHT22;66074;50.764;6.090;2023-11-19T13:33:36;15.10;99.50
19803;DHT22;66074;50.764;6.090;2023-11-19T13:36:03;14.90;99.40
19803;DHT22;66074;50.764;6.090;2023-11-19T13:38:34;14.80;98.90
19803;DHT22;66074;50.764;6.090;2023-11-19T13:41:05;14.60;99.50
19803;DHT22;66074;50.764;6.090;2023-11-19T13:43:31;14.50;99.00
19803;DHT22;66074;50.764;6.090;2023-11-19T13:45:57;14.50;98.90
19803;DHT22;66074;50.764;6.090;2023-11-19T13:48:24;14.50;98.50
19803;DHT22;66074;50.764;6.090;2023-11-19T13:50:50;14.50;98.90
19803;DHT22;66074;50.764;6.090;2023-11-19T13:53:16;14.40;98.80
19803;DHT22;66074;50.764;6.090;2023-11-19T13:55:42;14.40;98.60
19803;DHT22;66074;50.764;6.090;2023-11-19T13:58:09;14.40;98.80
19803;DHT22;66074;50.764;6.090;2023-11-19T14:00:35;14.50;98.80
19803;DHT22;66074;50.764;6.090;2023-11-19T14:03:01;14.50;98.50
19803;DHT22;66074;50.764;6.090;2023-11-19T14:05:27;14.50;98.50
19803;DHT22;66074;50.764;6.090;2023-11-19T14:07:53;14.50;98.60
19803;DHT22;66074;50.764;6.090;2023-11-19T14:10:22;14.40;98.50
19803;DHT22;66074;50.764;6.090;2023-11-19T14:12:48;14.40;98.60
19803;DHT22;66074;50.764;6.090;2023-11-19T14:15:15;14.20;98.50
19803;DHT22;66074;50.764;6.090;2023-11-19T14:17:44;14.20;98.80
19803;DHT22;66074;50.764;6.090;2023-11-19T14:20:10;14.10;98.60
19803;DHT22;66074;50.764;6.090;2023-11-19T14:22:43;14.10;98.90
19803;DHT22;66074;50.764;6.090;2023-11-19T14:25:09;14.00;99.00
19803;DHT22;66074;50.764;6.090;2023-11-19T14:27:40;13.90;99.00
19803;DHT22;66074;50.764;6.090;2023-11-19T14:30:07;13.80;99.20
19803;DHT22;66074;50.764;6.090;2023-11-19T14:32:37;13.70;99.20
19803;DHT22;66074;50.764;6.090;2023-11-19T14:35:03;13.70;99.30
19803;DHT22;66074;50.764;6.090;2023-11-19T14:37:30;13.60;99.30
19803;DHT22;66074;50.764;6.090;2023-11-19T14:39:59;13.50;99.30
19803;DHT22;66074;50.764;6.090;2023-11-19T14:42:25;13.50;99.40
19803;DHT22;66074;50.764;6.090;2023-11-19T14:44:51;13.50;99.50
19803;DHT22;66074;50.764;6.090;2023-11-19T14:47:21;13.50;99.40
19803;DHT22;66074;50.764;6.090;2023-11-19T14:49:46;13.50;99.80
19803;DHT22;66074;50.764;6.090;2023-11-19T14:52:12;13.50;99.50
19803;DHT22;66074;50.764;6.090;2023-11-19T14:54:38;13.50;99.50
19803;DHT22;66074;50.764;6.090;2023-11-19T14:57:05;13.50;99.50
19803;DHT22;66074;50.764;6.090;2023-11-19T14:59:31;13.50;99.50
19803;DHT22;66074;50.764;6.090;2023-11-19T15:01:58;13.50;99.50
19803;DHT22;66074;50.764;6.090;2023-11-19T15:04:25;13.50;99.60
19803;DHT22;66074;50.764;6.090;2023-11-19T15:06:50;13.70;99.70
19803;DHT22;66074;50.764;6.090;2023-11-19T15:09:16;13.70;99.50
19803;DHT22;66074;50.764;6.090;2023-11-19T15:11:46;13.70;99.50
19803;DHT22;66074;50.764;6.090;2023-11-19T15:14:15;13.60;99.40
19803;DHT22;66074;50.764;6.090;2023-11-19T15:16:42;13.60;99.20
19803;DHT22;66074;50.764;6.090;2023-11-19T15:19:08;13.50;99.30
19803;DHT22;66074;50.764;6.090;2023-11-19T15:21:34;13.50;99.30
19803;DHT22;66074;50.764;6.090;2023-11-19T15:24:01;13.30;99.10
19803;DHT22;66074;50.764;6.090;2023-11-19T15:26:30;13.30;99.20
19803;DHT22;66074;50.764;6.090;2023-11-19T15:28:55;13.20;99.10
19803;DHT22;66074;50.764;6.090;2023-11-19T15:31:23;13.20;99.10
19803;DHT22;66074;50.764;6.090;2023-11-19T15:33:49;13.10;99.10
19803;DHT22;66074;50.764;6.090;2023-11-19T15:36:16;13.10;98.90
19803;DHT22;66074;50.764;6.090;2023-11-19T15:38:43;13.10;99.00
19803;DHT22;66074;50.764;6.090;2023-11-19T15:41:08;13.10;98.90
19803;DHT22;66074;50.764;6.090;2023-11-19T15:43:34;13.20;98.90
19803;DHT22;66074;50.764;6.090;2023-11-19T15:46:00;13.30;98.90
19803;DHT22;66074;50.764;6.090;2023-11-19T15:48:25;13.30;98.70
19803;DHT22;66074;50.764;6.090;2023-11-19T15:50:52;13.30;98.50